Time;durP1;ratioP1;P1;durP2;ratioP2;P2;SDS_P1;SDS_P2;PMS_P1;PMS_P2;Temp;Humidity;BMP_temperature;BMP_pressure;BME280_temperature;BME280_humidity;BME280_pressure;Samples;Min_cycle;Max_cycle;Signal;HPM_P1;HPM_P2
2022/06/02 00:00:10;;;;;;;2.00;1.23;;;18.50;99.90;;;;;;5052875;28;20032;-76
2022/06/02 00:02:51;;;;;;;2.08;1.10;;;18.60;99.90;;;;;;5051685;28;20379;-76
2022/06/02 00:05:52;;;;;;;4.00;1.20;;;18.60;99.90;;;;;;5052402;28;20028;-75
2022/06/02 00:08:49;;;;;;;1.75;1.00;;;18.50;99.90;;;;;;5052323;28;20079;-76
2022/06/02 00:11:29;;;;;;;1.67;1.40;;;18.50;99.90;;;;;;5052466;28;20032;-75
2022/06/02 00:14:30;;;;;;;0.90;0.90;;;18.50;99.90;;;;;;5052287;28;20099;-75
2022/06/02 00:17:09;;;;;;;1.67;1.10;;;18.50;99.90;;;;;;5038374;28;20365;-76
2022/06/02 00:19:48;;;;;;;1.63;1.23;;;18.60;99.90;;;;;;5052661;28;20041;-76
2022/06/02 00:22:29;;;;;;;1.27;1.17;;;18.60;99.90;;;;;;5060516;28;20130;-76
2022/06/02 00:25:18;;;;;;;1.20;1.10;;;18.60;99.90;;;;;;5067696;28;20035;-75
2022/06/02 00:27:46;;;;;;;1.75;1.30;;;18.60;99.90;;;;;;5054929;28;20025;-76
2022/06/02 00:30:24;;;;;;;1.92;1.25;;;18.60;99.90;;;;;;5052359;28;20114;-76
2022/06/02 00:32:56;;;;;;;2.00;1.70;;;18.60;99.90;;;;;;5051783;28;20316;-77
2022/06/02 00:35:27;;;;;;;1.85;1.40;;;18.60;99.90;;;;;;5051337;28;20025;-77
2022/06/02 00:37:56;;;;;;;1.75;1.20;;;18.50;99.90;;;;;;5052087;28;20044;-75
2022/06/02 00:40:23;;;;;;;2.42;1.50;;;18.50;99.90;;;;;;5052077;28;20100;-76
2022/06/02 00:42:55;;;;;;;1.38;1.15;;;18.50;99.90;;;;;;5058791;28;20526;-76
2022/06/02 00:45:21;;;;;;;1.65;1.40;;;18.50;99.90;;;;;;5071450;28;20048;-76
2022/06/02 00:47:52;;;;;;;1.90;1.50;;;18.50;99.90;;;;;;5071660;28;20032;-76
2022/06/02 00:50:41;;;;;;;1.80;1.33;;;18.50;99.90;;;;;;5070792;28;20033;-76
2022/06/02 00:53:35;;;;;;;2.65;1.35;;;18.40;99.90;;;;;;5051576;28;20338;-75
2022/06/02 00:59:47;;;;;;;1.90;1.40;;;18.30;99.90;;;;;;5051568;28;20040;-75
2022/06/02 01:02:13;;;;;;;1.50;1.33;;;18.30;99.90;;;;;;5051561;28;20443;-76
2022/06/02 01:04:42;;;;;;;3.67;1.00;;;18.20;99.90;;;;;;5050441;28;20076;-76
2022/06/02 01:07:10;;;;;;;1.90;1.33;;;18.20;99.90;;;;;;5050786;28;20098;-76
2022/06/02 01:10:02;;;;;;;2.05;1.20;;;18.20;99.90;;;;;;5051757;28;20033;-75
2022/06/02 01:12:48;;;;;;;1.48;1.27;;;18.20;99.90;;;;;;5051888;28;20025;-73
2022/06/02 01:15:34;;;;;;;1.15;1.00;;;18.20;99.90;;;;;;5055109;28;20032;-75
2022/06/02 01:18:19;;;;;;;1.85;1.23;;;18.20;99.90;;;;;;5055247;28;20503;-74
2022/06/02 01:20:53;;;;;;;1.73;1.35;;;18.20;99.90;;;;;;5055334;28;20550;-75
2022/06/02 01:23:22;;;;;;;1.98;1.50;;;18.30;99.90;;;;;;5056020;28;20465;-75
2022/06/02 01:26:16;;;;;;;2.05;1.38;;;18.20;99.90;;;;;;5055267;28;20036;-75
2022/06/02 01:28:47;;;;;;;1.30;1.08;;;18.20;99.90;;;;;;5055676;28;20057;-76
2022/06/02 01:31:16;;;;;;;1.42;1.23;;;18.20;99.90;;;;;;5055690;28;20082;-76
2022/06/02 01:34:10;;;;;;;1.83;1.40;;;18.20;99.90;;;;;;5057813;28;20027;-74
2022/06/02 01:36:47;;;;;;;1.85;1.30;;;18.20;99.90;;;;;;5055554;28;20021;-76
2022/06/02 01:39:31;;;;;;;2.60;1.08;;;18.20;99.90;;;;;;5055258;28;20043;-76
2022/06/02 01:42:08;;;;;;;3.72;2.08;;;18.20;99.90;;;;;;5059830;28;20033;-76
2022/06/02 01:44:43;;;;;;;1.30;1.10;;;18.20;99.90;;;;;;5075567;28;20048;-76
2022/06/02 01:47:44;;;;;;;4.15;1.38;;;18.20;99.90;;;;;;5075055;28;20044;-76
2022/06/02 01:50:24;;;;;;;1.30;1.15;;;18.20;99.90;;;;;;5074832;28;20469;-76
2022/06/02 01:53:31;;;;;;;2.60;1.50;;;18.20;99.90;;;;;;5074576;28;20025;-76
2022/06/02 01:56:09;;;;;;;2.03;1.40;;;18.10;99.90;;;;;;5074619;28;20119;-76
2022/06/02 01:58:53;;;;;;;1.55;1.38;;;18.20;99.90;;;;;;5075050;28;20031;-76
2022/06/02 02:01:25;;;;;;;2.20;1.20;;;18.20;99.90;;;;;;5074896;28;20056;-77
2022/06/02 02:04:02;;;;;;;1.60;1.48;;;18.10;99.90;;;;;;5074423;28;20147;-76
2022/06/02 02:06:43;;;;;;;2.08;1.50;;;18.20;99.90;;;;;;5074865;28;20037;-76
2022/06/02 02:09:28;;;;;;;3.85;1.50;;;18.10;99.90;;;;;;5074736;28;20040;-76
2022/06/02 02:11:57;;;;;;;1.50;1.38;;;18.10;99.90;;;;;;5073791;28;20040;-77
2022/06/02 02:14:43;;;;;;;3.30;1.40;;;18.10;99.90;;;;;;5074523;28;20069;-77
2022/06/02 02:17:33;;;;;;;1.80;1.20;;;18.10;99.90;;;;;;5074316;28;20032;-76
2022/06/02 02:20:12;;;;;;;1.70;1.27;;;18.00;99.90;;;;;;5073627;28;20469;-76
2022/06/02 02:23:20;;;;;;;2.20;1.27;;;18.00;99.90;;;;;;5074473;28;20170;-75
2022/06/02 02:25:58;;;;;;;1.58;1.30;;;18.00;99.90;;;;;;5072742;28;20024;-75
2022/06/02 02:28:34;;;;;;;2.03;1.52;;;17.90;99.90;;;;;;5074379;28;20028;-75
2022/06/02 02:31:17;;;;;;;2.72;1.40;;;17.90;99.90;;;;;;5073750;28;20095;-75
2022/06/02 02:34:25;;;;;;;1.83;1.50;;;17.90;99.90;;;;;;5068493;28;20119;-76
2022/06/02 02:37:35;;;;;;;2.35;1.80;;;17.90;99.90;;;;;;5053872;28;20082;-75
2022/06/02 02:40:09;;;;;;;3.08;1.60;;;17.90;99.90;;;;;;5024549;28;20062;-75
2022/06/02 02:42:51;;;;;;;1.67;1.30;;;17.90;99.90;;;;;;5058644;28;20086;-75
2022/06/02 02:45:46;;;;;;;2.03;1.60;;;17.80;99.90;;;;;;5057648;28;20051;-75
2022/06/02 02:48:30;;;;;;;3.42;1.60;;;17.80;99.90;;;;;;5054382;28;20208;-76
2022/06/02 02:51:05;;;;;;;2.42;1.50;;;17.80;99.90;;;;;;5053981;28;20032;-75
2022/06/02 02:54:08;;;;;;;2.97;1.60;;;17.80;99.90;;;;;;5054299;28;20468;-76
2022/06/02 02:56:49;;;;;;;2.42;1.50;;;17.80;99.90;;;;;;5054173;28;20429;-76
2022/06/02 02:59:27;;;;;;;1.85;1.65;;;17.80;99.90;;;;;;5053658;28;20056;-75
2022/06/02 03:02:08;;;;;;;2.20;1.70;;;17.80;99.90;;;;;;5053669;28;20057;-75
2022/06/02 03:04:58;;;;;;;2.47;1.88;;;17.80;99.90;;;;;;5053479;28;20025;-75
2022/06/02 03:07:24;;;;;;;2.10;1.73;;;17.80;99.90;;;;;;5053660;28;20147;-74
2022/06/02 03:10:16;;;;;;;2.38;1.70;;;17.80;99.90;;;;;;5054009;28;20063;-75
2022/06/02 03:13:05;;;;;;;1.27;1.15;;;17.80;99.90;;;;;;5053942;28;20032;-75
2022/06/02 03:15:45;;;;;;;1.70;1.35;;;17.80;99.90;;;;;;5053880;28;20032;-75
2022/06/02 03:18:29;;;;;;;2.42;1.42;;;17.70;99.90;;;;;;5053155;28;20469;-75
2022/06/02 03:21:03;;;;;;;1.70;1.60;;;17.70;99.90;;;;;;5053318;28;20075;-78
2022/06/02 03:23:51;;;;;;;1.40;1.20;;;17.70;99.90;;;;;;5053568;28;20446;-75
2022/06/02 03:26:57;;;;;;;1.63;1.40;;;17.80;99.90;;;;;;5053147;28;20037;-75
2022/06/02 03:29:44;;;;;;;1.80;1.40;;;17.70;99.90;;;;;;5053440;28;20040;-76
2022/06/02 03:32:38;;;;;;;2.17;1.45;;;17.70;99.90;;;;;;5053256;28;20079;-76
2022/06/02 03:35:19;;;;;;;2.42;1.50;;;17.70;99.90;;;;;;5052885;28;20400;-75
2022/06/02 03:38:06;;;;;;;1.48;1.33;;;17.80;99.90;;;;;;5052869;28;20029;-75
2022/06/02 03:40:37;;;;;;;1.42;1.20;;;17.80;99.90;;;;;;5053390;28;20032;-74
2022/06/02 03:43:19;;;;;;;1.95;1.48;;;17.70;99.90;;;;;;5055133;28;20021;-74
2022/06/02 03:46:11;;;;;;;2.70;1.40;;;17.70;99.90;;;;;;5052560;28;20620;-74
2022/06/02 03:48:52;;;;;;;1.50;1.30;;;17.80;99.90;;;;;;5052980;28;20115;-75
2022/06/02 03:51:36;;;;;;;2.00;1.70;;;17.80;99.90;;;;;;5052618;28;20694;-75
2022/06/02 03:54:30;;;;;;;1.48;1.35;;;17.70;99.90;;;;;;5051182;28;20039;-75
2022/06/02 03:57:28;;;;;;;1.92;1.38;;;17.70;99.90;;;;;;5053076;28;20029;-75
2022/06/02 04:00:19;;;;;;;3.10;1.35;;;17.70;99.90;;;;;;5041711;28;20481;-75
2022/06/02 04:02:51;;;;;;;2.72;1.48;;;17.80;99.90;;;;;;5052938;28;20032;-74
2022/06/02 04:05:31;;;;;;;2.00;1.55;;;17.80;99.90;;;;;;5052104;28;20025;-75
2022/06/02 04:08:27;;;;;;;1.57;1.47;;;17.90;99.90;;;;;;5052768;28;20115;-75
2022/06/02 04:10:59;;;;;;;1.92;1.50;;;18.00;99.90;;;;;;5052161;28;20096;-74
2022/06/02 04:13:37;;;;;;;1.48;1.33;;;18.10;99.90;;;;;;5052305;28;20051;-74
2022/06/02 04:16:23;;;;;;;4.85;1.50;;;18.20;99.90;;;;;;5051828;28;20091;-75
2022/06/02 04:22:34;;;;;;;1.67;1.40;;;18.50;99.90;;;;;;5051921;28;20044;-74
2022/06/02 04:25:16;;;;;;;1.70;1.58;;;18.70;99.90;;;;;;5071730;28;20035;-78
2022/06/02 04:28:02;;;;;;;1.67;1.58;;;18.80;99.90;;;;;;5072197;28;20039;-74
2022/06/02 04:30:38;;;;;;;2.40;1.65;;;18.80;99.90;;;;;;5067406;28;20032;-74
2022/06/02 04:33:09;;;;;;;2.03;1.73;;;19.00;99.90;;;;;;5052007;28;20067;-75
2022/06/02 04:36:02;;;;;;;1.67;1.40;;;19.10;99.90;;;;;;5051998;28;20496;-75
2022/06/02 04:38:41;;;;;;;1.77;1.40;;;19.20;99.70;;;;;;5051605;28;20028;-75
2022/06/02 04:41:38;;;;;;;1.55;1.45;;;19.40;98.40;;;;;;5058803;28;20401;-75
2022/06/02 04:44:22;;;;;;;2.17;1.27;;;19.50;98.10;;;;;;5071280;28;20106;-75
2022/06/02 04:47:12;;;;;;;1.40;1.30;;;19.70;97.40;;;;;;5071648;28;20025;-76
2022/06/02 04:49:47;;;;;;;1.48;1.20;;;19.90;96.50;;;;;;5051469;28;20351;-74
2022/06/02 04:52:31;;;;;;;2.55;1.48;;;20.10;95.00;;;;;;5051309;28;20037;-74
2022/06/02 04:55:10;;;;;;;1.58;1.30;;;20.30;94.50;;;;;;5051847;28;20104;-75
2022/06/02 04:57:52;;;;;;;1.77;1.27;;;20.60;94.20;;;;;;5051800;28;20025;-76
2022/06/02 05:00:23;;;;;;;2.17;1.67;;;20.90;93.20;;;;;;5051270;28;20384;-76
2022/06/02 05:03:08;;;;;;;2.15;1.52;;;21.10;91.40;;;;;;5051968;28;20025;-74
2022/06/02 05:05:52;;;;;;;1.40;1.30;;;21.40;90.50;;;;;;5051747;28;20021;-77
2022/06/02 05:08:23;;;;;;;4.43;1.40;;;21.80;88.70;;;;;;5051478;28;20029;-75
2022/06/02 05:10:51;;;;;;;4.70;1.50;;;22.20;84.30;;;;;;5051491;28;20052;-76
2022/06/02 05:13:45;;;;;;;3.35;1.38;;;22.50;81.20;;;;;;5051338;28;20064;-75
2022/06/02 05:16:45;;;;;;;1.83;1.45;;;23.10;78.50;;;;;;5051397;28;20079;-76
2022/06/02 05:19:35;;;;;;;1.50;1.15;;;24.20;75.30;;;;;;5025116;28;20036;-74
2022/06/02 05:22:16;;;;;;;1.95;1.15;;;24.90;69.00;;;;;;5051815;28;20120;-76
2022/06/02 05:25:12;;;;;;;2.72;1.30;;;25.10;65.70;;;;;;5051920;28;20029;-77
2022/06/02 05:28:13;;;;;;;2.90;1.25;;;25.30;64.10;;;;;;5051692;28;20373;-74
2022/06/02 05:30:42;;;;;;;1.52;1.40;;;26.40;61.80;;;;;;5051625;28;20033;-75
2022/06/02 05:33:32;;;;;;;1.65;1.25;;;27.60;56.30;;;;;;5050602;28;20446;-76
2022/06/02 05:36:19;;;;;;;1.10;1.00;;;28.40;54.80;;;;;;5051437;28;20389;-76
2022/06/02 05:38:47;;;;;;;3.58;1.17;;;28.70;52.00;;;;;;5051336;28;20017;-74
2022/06/02 05:41:19;;;;;;;0.82;0.80;;;28.90;53.20;;;;;;5050588;28;20083;-75
2022/06/02 05:43:56;;;;;;;1.65;1.20;;;29.40;51.30;;;;;;5051042;28;20048;-76
2022/06/02 05:46:41;;;;;;;1.92;1.10;;;29.50;50.00;;;;;;5050834;28;20457;-74
2022/06/02 05:49:28;;;;;;;1.30;1.00;;;30.00;48.60;;;;;;5050529;28;20036;-80
2022/06/02 05:52:16;;;;;;;1.85;1.17;;;30.60;48.40;;;;;;5051545;28;20482;-77
2022/06/02 05:55:00;;;;;;;0.90;0.90;;;30.20;46.60;;;;;;5051154;28;20167;-75
2022/06/02 05:57:41;;;;;;;1.00;0.90;;;30.00;47.50;;;;;;5050538;28;20032;-75
2022/06/02 06:00:15;;;;;;;;;;;29.50;46.80;;;;;;5052363;28;20029;-77
2022/06/02 06:03:11;;;;;;;1.10;0.80;;;29.60;47.70;;;;;;5054622;28;20388;-75
2022/06/02 06:05:54;;;;;;;1.67;1.00;;;29.60;48.40;;;;;;5054864;28;20032;-76
2022/06/02 06:08:23;;;;;;;1.02;0.88;;;29.20;49.70;;;;;;5054248;28;20037;-74
2022/06/02 06:11:03;;;;;;;1.20;1.00;;;30.40;46.40;;;;;;5054663;28;20021;-75
2022/06/02 06:13:48;;;;;;;;;;;30.20;45.50;;;;;;5055021;28;20029;-76
2022/06/02 06:16:24;;;;;;;2.10;1.15;;;29.40;46.00;;;;;;5054067;28;20410;-76
2022/06/02 06:19:09;;;;;;;1.67;1.05;;;30.10;46.80;;;;;;5054364;28;20040;-76
2022/06/02 06:22:20;;;;;;;0.82;0.80;;;29.80;45.60;;;;;;5054458;28;20469;-76
2022/06/02 06:25:09;;;;;;;2.45;1.10;;;28.40;47.70;;;;;;5054378;28;20056;-75
2022/06/02 06:28:01;;;;;;;1.15;0.95;;;27.80;48.90;;;;;;5054519;28;20029;-76
2022/06/02 06:30:33;;;;;;;0.85;0.80;;;27.20;51.50;;;;;;5053736;28;20113;-77
2022/06/02 06:33:14;;;;;;;1.05;0.90;;;26.80;51.60;;;;;;5054269;28;20021;-76
2022/06/02 06:36:17;;;;;;;1.50;0.90;;;26.80;52.80;;;;;;5054240;28;20043;-75
2022/06/02 06:38:53;;;;;;;1.45;0.80;;;27.60;50.60;;;;;;5054767;28;20021;-79
2022/06/02 06:41:37;;;;;;;1.10;0.88;;;28.00;47.40;;;;;;5054128;28;20028;-76
2022/06/02 06:44:11;;;;;;;1.05;0.93;;;27.70;48.10;;;;;;5053905;28;20072;-76
2022/06/02 06:47:00;;;;;;;2.35;0.85;;;27.80;46.90;;;;;;5053833;28;20025;-77
2022/06/02 06:49:40;;;;;;;0.75;0.60;;;27.60;47.00;;;;;;5055930;28;20115;-75
2022/06/02 06:52:25;;;;;;;0.95;0.70;;;27.50;47.30;;;;;;5053633;28;20033;-79
2022/06/02 06:55:18;;;;;;;1.10;0.90;;;26.90;47.90;;;;;;5053879;28;20033;-75
2022/06/02 06:57:48;;;;;;;0.77;0.77;;;26.10;49.40;;;;;;5053694;28;20039;-75
2022/06/02 07:00:28;;;;;;;1.23;1.08;;;25.60;50.40;;;;;;5053298;28;20029;-77
2022/06/02 07:03:18;;;;;;;1.05;0.85;;;25.20;52.00;;;;;;5061140;28;20032;-76
2022/06/02 07:05:53;;;;;;;0.73;0.73;;;24.60;53.00;;;;;;5073367;28;20145;-76
2022/06/02 07:08:24;;;;;;;1.13;1.05;;;24.20;54.70;;;;;;5073046;28;20044;-76
2022/06/02 07:11:00;;;;;;;1.27;1.17;;;23.70;55.40;;;;;;5073630;28;20063;-76
2022/06/02 07:13:31;;;;;;;2.97;1.60;;;23.50;56.40;;;;;;5073124;28;20024;-75
2022/06/02 07:16:10;;;;;;;0.80;0.80;;;23.20;58.30;;;;;;5073894;28;20035;-75
2022/06/02 07:19:01;;;;;;;0.80;0.80;;;22.90;58.30;;;;;;5073929;28;20465;-76
2022/06/02 07:21:46;;;;;;;1.27;1.17;;;22.50;60.60;;;;;;5073510;28;20247;-76
2022/06/02 07:24:30;;;;;;;1.10;1.00;;;22.40;62.50;;;;;;5073561;28;20381;-76
2022/06/02 07:26:58;;;;;;;1.20;1.10;;;22.50;64.20;;;;;;5072193;28;20036;-74
2022/06/02 07:29:55;;;;;;;1.73;1.00;;;22.40;64.00;;;;;;5069786;28;20115;-75
2022/06/02 07:32:46;;;;;;;1.50;1.40;;;22.30;63.50;;;;;;5073021;28;20098;-76
2022/06/02 07:35:30;;;;;;;1.45;1.08;;;22.50;65.50;;;;;;5069048;28;20036;-76
2022/06/02 07:38:18;;;;;;;1.27;1.10;;;22.90;64.80;;;;;;5073370;28;20093;-76
2022/06/02 07:40:49;;;;;;;1.10;1.00;;;23.60;62.60;;;;;;5073204;28;20039;-76
2022/06/02 07:43:39;;;;;;;1.27;1.10;;;24.10;60.90;;;;;;5073144;28;20075;-76
2022/06/02 07:46:31;;;;;;;2.30;1.10;;;24.20;58.70;;;;;;5073059;28;20051;-77
2022/06/02 07:49:33;;;;;;;1.48;0.95;;;24.70;57.20;;;;;;5073167;28;20112;-75
2022/06/02 07:52:17;;;;;;;1.15;0.98;;;24.80;57.40;;;;;;5072911;28;20025;-75
2022/06/02 07:55:19;;;;;;;1.10;1.00;;;25.30;55.90;;;;;;5073026;28;20413;-75
2022/06/02 07:58:13;;;;;;;1.42;0.95;;;25.50;55.80;;;;;;5072685;28;20388;-75
2022/06/02 08:00:42;;;;;;;1.60;1.17;;;25.70;55.10;;;;;;5072733;28;20445;-75
2022/06/02 08:03:37;;;;;;;1.15;1.05;;;25.70;53.20;;;;;;5072819;28;20020;-77
2022/06/02 08:06:17;;;;;;;1.23;1.13;;;26.00;52.60;;;;;;5072368;28;20107;-75
2022/06/02 08:09:01;;;;;;;3.00;1.45;;;26.00;53.10;;;;;;5072783;28;20033;-74
2022/06/02 08:11:39;;;;;;;1.00;0.77;;;26.20;53.80;;;;;;5072394;28;20044;-76
2022/06/02 08:14:09;;;;;;;1.75;1.25;;;26.50;53.30;;;;;;5072856;28;20029;-76
2022/06/02 08:17:01;;;;;;;1.20;1.10;;;26.90;52.00;;;;;;5071870;28;20369;-76
2022/06/02 08:19:57;;;;;;;1.52;1.30;;;26.80;51.50;;;;;;5072225;28;20029;-76
2022/06/02 08:22:41;;;;;;;2.38;1.40;;;27.00;51.10;;;;;;5072278;28;20030;-76
2022/06/02 08:25:21;;;;;;;1.30;1.08;;;27.00;51.10;;;;;;5071606;28;20024;-75
2022/06/02 08:28:11;;;;;;;6.00;1.40;;;27.10;51.30;;;;;;5072506;28;20040;-75
2022/06/02 08:30:58;;;;;;;1.30;1.20;;;26.90;50.10;;;;;;5072082;28;20030;-76
2022/06/02 08:33:47;;;;;;;1.38;0.90;;;26.50;50.60;;;;;;5071661;28;20538;-75
2022/06/02 08:36:30;;;;;;;1.50;1.00;;;26.00;51.40;;;;;;5072136;28;20119;-78
2022/06/02 08:39:22;;;;;;;0.77;0.77;;;25.80;52.50;;;;;;5072313;28;20035;-76
2022/06/02 08:42:25;;;;;;;1.40;0.90;;;25.60;51.80;;;;;;5072227;28;20028;-76
2022/06/02 08:45:06;;;;;;;1.20;0.98;;;25.40;52.40;;;;;;5071611;28;20048;-75
2022/06/02 08:48:16;;;;;;;2.35;1.00;;;25.00;52.10;;;;;;5071631;28;20042;-75
2022/06/02 08:50:57;;;;;;;1.37;1.10;;;24.90;50.50;;;;;;5049386;28;20090;-76
2022/06/02 08:53:28;;;;;;;1.48;1.00;;;24.80;52.30;;;;;;5051501;28;20653;-75
2022/06/02 08:56:19;;;;;;;1.02;0.90;;;24.80;52.70;;;;;;5052006;28;20021;-75
2022/06/02 08:59:15;;;;;;;1.42;1.10;;;24.90;52.70;;;;;;5049079;28;20443;-76
2022/06/02 09:01:56;;;;;;;1.40;1.05;;;24.90;52.60;;;;;;5043927;28;20037;-75
2022/06/02 09:04:44;;;;;;;1.08;0.98;;;25.00;53.00;;;;;;5051434;28;20028;-75
2022/06/02 09:07:12;;;;;;;2.83;1.20;;;25.10;51.30;;;;;;5051884;28;20037;-74
2022/06/02 09:10:00;;;;;;;1.02;0.80;;;25.20;51.40;;;;;;5051643;28;20029;-75
2022/06/02 09:13:05;;;;;;;0.73;0.73;;;25.00;49.10;;;;;;5051471;28;20021;-75
2022/06/02 09:15:52;;;;;;;0.70;0.70;;;24.90;48.80;;;;;;5051314;28;20025;-74
2022/06/02 09:18:36;;;;;;;0.80;0.63;;;25.00;49.50;;;;;;5051350;28;20469;-76
2022/06/02 09:21:14;;;;;;;0.80;0.80;;;24.90;49.10;;;;;;5051711;28;20469;-75
2022/06/02 09:24:05;;;;;;;0.77;0.77;;;24.80;49.10;;;;;;5051606;28;20361;-76
2022/06/02 09:26:46;;;;;;;;;;;24.70;49.60;;;;;;5051874;28;20056;-75
2022/06/02 09:29:39;;;;;;;1.00;0.80;;;24.60;48.60;;;;;;5051658;28;19909;-74
2022/06/02 09:32:40;;;;;;;1.60;0.80;;;24.60;50.60;;;;;;5071065;28;20034;-75
2022/06/02 09:35:17;;;;;;;1.67;0.95;;;24.60;52.20;;;;;;5027660;28;20127;-74
2022/06/02 09:38:01;;;;;;;0.90;0.90;;;24.60;51.90;;;;;;5075847;28;20036;-75
2022/06/02 09:40:38;;;;;;;1.80;1.08;;;24.70;50.20;;;;;;5075412;28;20095;-74
2022/06/02 09:43:28;;;;;;;1.45;0.82;;;24.80;50.10;;;;;;5075344;28;20036;-75
2022/06/02 09:45:56;;;;;;;1.10;1.00;;;24.90;50.40;;;;;;5075472;28;20059;-75
2022/06/02 09:48:25;;;;;;;1.33;0.90;;;24.90;49.70;;;;;;5074917;28;20414;-76
2022/06/02 09:51:09;;;;;;;1.00;0.70;;;25.10;49.70;;;;;;5075317;28;20104;-75
2022/06/02 09:54:11;;;;;;;1.23;0.70;;;25.00;49.50;;;;;;5074208;28;20346;-74
2022/06/02 10:00:39;;;;;;;1.35;1.00;;;25.00;49.40;;;;;;5054293;28;20439;-75
2022/06/02 10:03:08;;;;;;;1.55;1.05;;;25.00;49.30;;;;;;5074981;28;20118;-74
2022/06/02 10:06:02;;;;;;;2.00;1.10;;;25.00;48.30;;;;;;5074376;28;20028;-75
2022/06/02 10:08:49;;;;;;;3.30;0.90;;;25.00;47.20;;;;;;5073752;28;20029;-75
2022/06/02 10:14:55;;;;;;;1.92;0.98;;;25.20;48.90;;;;;;4994328;28;20589;-75
2022/06/02 10:17:56;;;;;;;1.42;1.08;;;25.40;50.50;;;;;;5074301;28;20028;-77
2022/06/02 10:20:37;;;;;;;1.10;0.88;;;25.50;50.20;;;;;;5074125;28;20111;-75
2022/06/02 10:23:32;;;;;;;0.75;0.70;;;25.60;49.80;;;;;;5074778;28;20072;-74
2022/06/02 10:26:16;;;;;;;0.98;0.82;;;25.70;48.40;;;;;;5074546;28;20035;-75
2022/06/02 10:29:15;;;;;;;1.20;1.10;;;25.60;48.90;;;;;;5074245;28;20037;-75
2022/06/02 10:31:57;;;;;;;1.35;1.02;;;25.60;49.10;;;;;;5073817;28;20051;-75
2022/06/02 10:34:47;;;;;;;0.80;0.80;;;25.80;48.70;;;;;;5073711;28;20033;-76
2022/06/02 10:37:21;;;;;;;1.13;1.02;;;25.80;47.70;;;;;;5074036;28;20110;-75
2022/06/02 10:40:24;;;;;;;0.80;0.80;;;25.70;47.70;;;;;;5074108;28;20021;-75
2022/06/02 10:43:28;;;;;;;0.90;0.90;;;25.80;48.40;;;;;;5073944;28;20095;-75
2022/06/02 10:46:11;;;;;;;0.98;0.73;;;25.90;46.80;;;;;;5073945;28;20052;-74
2022/06/02 10:48:59;;;;;;;1.08;0.98;;;26.10;47.90;;;;;;5073190;28;20127;-74
2022/06/02 10:51:56;;;;;;;1.13;0.90;;;25.90;47.50;;;;;;5073415;28;20615;-75
2022/06/02 10:54:40;;;;;;;2.58;0.95;;;25.90;49.60;;;;;;5055991;28;20021;-78
2022/06/02 10:57:37;;;;;;;2.45;1.13;;;25.90;48.70;;;;;;5054001;28;20032;-74
2022/06/02 11:00:29;;;;;;;1.17;0.90;;;25.90;48.50;;;;;;5053689;28;20031;-75
2022/06/02 11:03:32;;;;;;;1.13;1.00;;;25.90;48.80;;;;;;5054089;28;20032;-75
2022/06/02 11:06:21;;;;;;;0.88;0.80;;;25.80;49.90;;;;;;5053256;28;20087;-74
2022/06/02 11:08:49;;;;;;;3.20;1.13;;;25.70;48.90;;;;;;5053242;28;20025;-75
2022/06/02 11:11:47;;;;;;;1.10;0.73;;;25.70;49.80;;;;;;5053531;28;20044;-75
2022/06/02 11:14:27;;;;;;;0.93;0.82;;;25.60;48.60;;;;;;5052902;28;20365;-75
2022/06/02 11:17:12;;;;;;;1.77;0.90;;;25.60;48.90;;;;;;5053493;28;20037;-75
2022/06/02 11:20:08;;;;;;;2.35;1.00;;;25.60;48.70;;;;;;5052839;28;20029;-75
2022/06/02 11:22:58;;;;;;;1.20;1.10;;;25.60;49.20;;;;;;5052910;28;20037;-74
2022/06/02 11:25:30;;;;;;;1.65;1.20;;;25.60;51.10;;;;;;5051407;28;20035;-75
2022/06/02 11:27:58;;;;;;;1.70;1.20;;;25.70;49.80;;;;;;5054050;28;20056;-75
2022/06/02 11:30:55;;;;;;;1.05;0.95;;;25.60;48.20;;;;;;5053232;28;20410;-80
2022/06/02 11:33:27;;;;;;;1.33;0.93;;;25.50;48.30;;;;;;5052964;28;20504;-75
2022/06/02 11:36:27;;;;;;;0.77;0.77;;;25.50;49.20;;;;;;5053136;28;20042;-76
2022/06/02 11:39:02;;;;;;;0.90;0.90;;;25.40;48.90;;;;;;5053566;28;20035;-74
2022/06/02 11:41:33;;;;;;;1.70;1.00;;;25.40;48.70;;;;;;5052827;28;20083;-75
2022/06/02 11:44:11;;;;;;;1.20;0.90;;;25.50;50.60;;;;;;5052792;28;20045;-74
2022/06/02 11:47:05;;;;;;;0.82;0.82;;;25.70;49.30;;;;;;5052279;28;20029;-75
2022/06/02 11:50:02;;;;;;;2.25;1.08;;;25.60;48.80;;;;;;5052581;28;20137;-75
2022/06/02 11:52:49;;;;;;;0.95;0.90;;;25.60;48.50;;;;;;5052378;28;20027;-75
2022/06/02 11:55:32;;;;;;;1.20;1.00;;;25.70;48.50;;;;;;5052613;28;20032;-75
2022/06/02 11:58:01;;;;;;;2.25;0.80;;;25.60;48.60;;;;;;5052571;28;20116;-75
2022/06/02 12:00:35;;;;;;;2.45;1.15;;;25.60;49.50;;;;;;5052428;28;20090;-79
2022/06/02 12:03:13;;;;;;;1.23;1.00;;;25.60;48.60;;;;;;5052537;28;20466;-75
2022/06/02 12:05:51;;;;;;;0.98;0.93;;;25.60;48.20;;;;;;5052171;28;20487;-75
2022/06/02 12:08:49;;;;;;;0.95;0.75;;;25.60;48.50;;;;;;5052312;28;20028;-76
2022/06/02 12:11:45;;;;;;;0.80;0.70;;;25.70;47.30;;;;;;5034909;28;20119;-74
2022/06/02 12:14:42;;;;;;;1.20;0.90;;;25.70;47.20;;;;;;5052368;28;20488;-74
2022/06/02 12:17:11;;;;;;;1.13;0.93;;;25.80;47.20;;;;;;5052084;28;20052;-75
2022/06/02 12:19:52;;;;;;;5.30;1.38;;;25.70;47.20;;;;;;5052043;28;20027;-74
2022/06/02 12:22:33;;;;;;;1.67;0.85;;;25.80;47.70;;;;;;5052601;28;20029;-75
2022/06/02 12:25:17;;;;;;;;;;;25.70;47.80;;;;;;5052580;28;20480;-74
2022/06/02 12:28:09;;;;;;;1.80;1.10;;;25.60;47.20;;;;;;5051620;28;20284;-74
2022/06/02 12:30:51;;;;;;;0.75;0.75;;;25.60;47.80;;;;;;5051816;28;20035;-75
2022/06/02 12:33:31;;;;;;;1.10;0.90;;;25.50;48.00;;;;;;5052071;28;20033;-74
2022/06/02 12:36:09;;;;;;;0.90;0.90;;;25.50;46.70;;;;;;5052007;28;20027;-75
2022/06/02 12:39:05;;;;;;;1.13;0.80;;;25.40;47.00;;;;;;5051147;28;20059;-75
2022/06/02 12:41:37;;;;;;;1.20;0.95;;;25.40;47.00;;;;;;5051312;28;20024;-76
2022/06/02 12:44:20;;;;;;;2.55;1.00;;;25.30;46.90;;;;;;5052022;28;20056;-75
2022/06/02 12:47:35;;;;;;;1.05;0.95;;;25.30;46.50;;;;;;5051604;28;20040;-75
2022/06/02 12:50:33;;;;;;;1.27;1.05;;;25.40;47.90;;;;;;5051918;28;20041;-74
2022/06/02 12:53:30;;;;;;;2.47;0.90;;;25.30;46.70;;;;;;5017925;28;20033;-74
2022/06/02 12:56:14;;;;;;;1.00;0.80;;;25.30;46.40;;;;;;5052185;28;20421;-75
2022/06/02 12:59:08;;;;;;;0.80;0.80;;;25.30;45.10;;;;;;5050921;28;20060;-75
2022/06/02 13:02:04;;;;;;;2.20;0.90;;;25.30;45.50;;;;;;5027210;28;20108;-76
2022/06/02 13:04:30;;;;;;;1.40;0.90;;;25.30;46.70;;;;;;5051562;28;20025;-80
2022/06/02 13:07:14;;;;;;;1.50;0.98;;;25.30;46.60;;;;;;5051023;28;20059;-75
2022/06/02 13:10:17;;;;;;;5.03;1.17;;;25.30;46.60;;;;;;5050480;28;20040;-75
2022/06/02 13:13:03;;;;;;;0.95;0.80;;;25.30;46.30;;;;;;5052285;28;20021;-75
2022/06/02 13:16:14;;;;;;;3.83;1.33;;;25.30;46.40;;;;;;5051709;28;20054;-75
2022/06/02 13:19:20;;;;;;;0.75;0.75;;;25.30;45.60;;;;;;5027478;28;20055;-75
2022/06/02 13:22:10;;;;;;;0.95;0.90;;;25.50;45.80;;;;;;5044552;28;20040;-75
2022/06/02 13:24:57;;;;;;;0.90;0.90;;;25.50;45.70;;;;;;5051152;28;20453;-76
2022/06/02 13:27:38;;;;;;;1.10;0.80;;;25.60;46.40;;;;;;5051739;28;20115;-75
2022/06/02 13:30:22;;;;;;;3.08;0.90;;;25.70;46.10;;;;;;5051562;28;20132;-76
2022/06/02 13:33:29;;;;;;;1.33;1.23;;;25.70;46.80;;;;;;5051062;28;20036;-75
2022/06/02 13:36:18;;;;;;;0.80;0.80;;;25.70;46.90;;;;;;5050759;28;20044;-75
2022/06/02 13:38:46;;;;;;;1.10;1.00;;;25.70;46.30;;;;;;5051038;28;20095;-75
2022/06/02 13:41:30;;;;;;;1.42;1.10;;;25.60;46.50;;;;;;5051554;28;20025;-75
2022/06/02 13:44:26;;;;;;;2.72;0.73;;;25.60;46.60;;;;;;5050752;28;20045;-75
2022/06/02 13:47:27;;;;;;;1.80;0.80;;;25.60;46.70;;;;;;5051314;28;20086;-75
2022/06/02 13:50:27;;;;;;;1.17;1.00;;;25.60;45.90;;;;;;5051072;28;20033;-76
2022/06/02 13:53:32;;;;;;;1.65;1.08;;;25.50;46.40;;;;;;5050671;28;20562;-75
2022/06/02 13:59:42;;;;;;;1.17;0.90;;;25.40;46.80;;;;;;5050960;28;20044;-76
2022/06/02 14:02:46;;;;;;;1.13;0.98;;;25.30;46.70;;;;;;5050075;28;20503;-76
2022/06/02 14:05:40;;;;;;;0.80;0.80;;;25.30;46.60;;;;;;5050433;28;20519;-76
2022/06/02 14:08:22;;;;;;;0.93;0.90;;;25.30;47.00;;;;;;5050747;28;20064;-77
2022/06/02 14:10:51;;;;;;;1.10;1.00;;;25.30;46.60;;;;;;5049531;28;20493;-75
2022/06/02 14:13:37;;;;;;;0.80;0.77;;;25.20;46.80;;;;;;5051147;28;20454;-76
2022/06/02 14:16:36;;;;;;;1.00;0.80;;;25.20;47.20;;;;;;5051118;28;20033;-74
2022/06/02 14:19:20;;;;;;;0.73;0.73;;;25.20;47.10;;;;;;5051204;28;20032;-76
2022/06/02 14:22:01;;;;;;;1.15;1.00;;;25.10;46.40;;;;;;5051002;28;20500;-75
2022/06/02 14:24:45;;;;;;;;;;;25.10;46.60;;;;;;5055360;28;20104;-76
2022/06/02 14:27:36;;;;;;;1.23;0.93;;;25.10;46.80;;;;;;5054678;28;19915;-77
2022/06/02 14:30:18;;;;;;;1.00;0.95;;;25.10;46.50;;;;;;5054674;28;20048;-77
2022/06/02 14:33:06;;;;;;;1.25;0.95;;;25.10;46.30;;;;;;5054323;28;20032;-76
2022/06/02 14:35:54;;;;;;;0.85;0.85;;;25.10;46.30;;;;;;5054255;28;20461;-75